sensor_id;sensor_type;location;lat;lon;timestamp;P1;durP1;ratioP1;P2;durP2;ratioP2
33802;SDS011;20110;53.120;5.786;2023-03-14T00:00:15;20.55;;;5.75;;
33802;SDS011;20110;53.120;5.786;2023-03-14T00:02:41;24.48;;;5.65;;
33802;SDS011;20110;53.120;5.786;2023-03-14T00:05:08;15.93;;;5.28;;
33802;SDS011;20110;53.120;5.786;2023-03-14T00:07:38;23.85;;;11.75;;
33802;SDS011;20110;53.120;5.786;2023-03-14T00:10:08;27.40;;;5.70;;
33802;SDS011;20110;53.120;5.786;2023-03-14T00:12:38;25.63;;;15.70;;
33802;SDS011;20110;53.120;5.786;2023-03-14T00:15:11;21.52;;;5.80;;
33802;SDS011;20110;53.120;5.786;2023-03-14T00:17:37;31.00;;;7.18;;
33802;SDS011;20110;53.120;5.786;2023-03-14T00:20:05;17.50;;;5.80;;
33802;SDS011;20110;53.120;5.786;2023-03-14T00:22:39;15.68;;;13.95;;
33802;SDS011;20110;53.120;5.786;2023-03-14T00:25:06;16.98;;;7.15;;
33802;SDS011;20110;53.120;5.786;2023-03-14T00:27:35;24.65;;;20.35;;
33802;SDS011;20110;53.120;5.786;2023-03-14T00:30:01;25.73;;;9.20;;
33802;SDS011;20110;53.120;5.786;2023-03-14T00:32:28;23.17;;;9.25;;
33802;SDS011;20110;53.120;5.786;2023-03-14T00:34:54;21.50;;;8.45;;
33802;SDS011;20110;53.120;5.786;2023-03-14T00:37:20;32.20;;;7.60;;
33802;SDS011;20110;53.120;5.786;2023-03-14T00:39:46;39.53;;;12.55;;
33802;SDS011;20110;53.120;5.786;2023-03-14T00:42:12;25.17;;;10.05;;
33802;SDS011;20110;53.120;5.786;2023-03-14T00:44:38;18.42;;;13.63;;
33802;SDS011;20110;53.120;5.786;2023-03-14T00:47:04;12.68;;;10.52;;
33802;SDS011;20110;53.120;5.786;2023-03-14T00:49:30;19.25;;;17.52;;
33802;SDS011;20110;53.120;5.786;2023-03-14T00:51:56;39.83;;;19.92;;
33802;SDS011;20110;53.120;5.786;2023-03-14T00:54:22;22.35;;;9.55;;
33802;SDS011;20110;53.120;5.786;2023-03-14T00:56:48;24.52;;;12.85;;
33802;SDS011;20110;53.120;5.786;2023-03-14T00:59:15;20.98;;;5.70;;
33802;SDS011;20110;53.120;5.786;2023-03-14T01:01:42;24.73;;;6.85;;
33802;SDS011;20110;53.120;5.786;2023-03-14T01:04:09;20.70;;;8.02;;
33802;SDS011;20110;53.120;5.786;2023-03-14T01:06:35;16.30;;;8.05;;
33802;SDS011;20110;53.120;5.786;2023-03-14T01:09:02;14.32;;;9.15;;
33802;SDS011;20110;53.120;5.786;2023-03-14T01:11:30;29.23;;;19.35;;
33802;SDS011;20110;53.120;5.786;2023-03-14T01:13:58;18.02;;;7.13;;
33802;SDS011;20110;53.120;5.786;2023-03-14T01:16:27;14.00;;;10.85;;
33802;SDS011;20110;53.120;5.786;2023-03-14T01:18:54;13.23;;;8.85;;
33802;SDS011;20110;53.120;5.786;2023-03-14T01:21:25;18.23;;;13.15;;
33802;SDS011;20110;53.120;5.786;2023-03-14T01:23:54;23.83;;;10.52;;
33802;SDS011;20110;53.120;5.786;2023-03-14T01:26:24;24.23;;;17.20;;
33802;SDS011;20110;53.120;5.786;2023-03-14T01:28:53;28.92;;;26.50;;
33802;SDS011;20110;53.120;5.786;2023-03-14T01:31:21;33.92;;;13.63;;
33802;SDS011;20110;53.120;5.786;2023-03-14T01:33:48;12.27;;;7.88;;
33802;SDS011;20110;53.120;5.786;2023-03-14T01:36:15;18.05;;;6.40;;
33802;SDS011;20110;53.120;5.786;2023-03-14T01:38:43;16.23;;;7.45;;
33802;SDS011;20110;53.120;5.786;2023-03-14T01:41:12;25.10;;;4.53;;
33802;SDS011;20110;53.120;5.786;2023-03-14T01:43:45;21.60;;;5.00;;
33802;SDS011;20110;53.120;5.786;2023-03-14T01:49:10;18.50;;;5.43;;
33802;SDS011;20110;53.120;5.786;2023-03-14T01:54:27;19.13;;;16.35;;
33802;SDS011;20110;53.120;5.786;2023-03-14T01:56:58;17.52;;;16.08;;
33802;SDS011;20110;53.120;5.786;2023-03-14T01:59:58;20.98;;;4.30;;
33802;SDS011;20110;53.120;5.786;2023-03-14T02:02:51;22.67;;;18.63;;
33802;SDS011;20110;53.120;5.786;2023-03-14T02:05:25;15.07;;;11.50;;
33802;SDS011;20110;53.120;5.786;2023-03-14T02:08:01;13.05;;;6.47;;
33802;SDS011;20110;53.120;5.786;2023-03-14T02:10:31;18.48;;;8.48;;
33802;SDS011;20110;53.120;5.786;2023-03-14T02:13:04;24.05;;;3.63;;
33802;SDS011;20110;53.120;5.786;2023-03-14T02:15:31;25.63;;;7.13;;
33802;SDS011;20110;53.120;5.786;2023-03-14T02:17:58;15.23;;;6.95;;
33802;SDS011;20110;53.120;5.786;2023-03-14T02:20:40;28.23;;;8.40;;
33802;SDS011;20110;53.120;5.786;2023-03-14T02:23:45;18.83;;;5.78;;
33802;SDS011;20110;53.120;5.786;2023-03-14T02:26:43;13.60;;;5.90;;
33802;SDS011;20110;53.120;5.786;2023-03-14T02:32:33;10.60;;;4.03;;
33802;SDS011;20110;53.120;5.786;2023-03-14T02:35:04;12.35;;;4.90;;
33802;SDS011;20110;53.120;5.786;2023-03-14T02:37:46;27.45;;;4.10;;
33802;SDS011;20110;53.120;5.786;2023-03-14T02:40:18;31.75;;;4.53;;
33802;SDS011;20110;53.120;5.786;2023-03-14T02:42:44;15.82;;;5.97;;
33802;SDS011;20110;53.120;5.786;2023-03-14T02:47:56;18.67;;;5.80;;
33802;SDS011;20110;53.120;5.786;2023-03-14T02:50:30;11.25;;;6.97;;
33802;SDS011;20110;53.120;5.786;2023-03-14T02:52:59;21.95;;;5.20;;
33802;SDS011;20110;53.120;5.786;2023-03-14T02:55:25;15.90;;;7.93;;
33802;SDS011;20110;53.120;5.786;2023-03-14T02:57:51;21.33;;;6.57;;
33802;SDS011;20110;53.120;5.786;2023-03-14T03:00:18;22.77;;;4.90;;
33802;SDS011;20110;53.120;5.786;2023-03-14T03:02:45;10.15;;;7.88;;
33802;SDS011;20110;53.120;5.786;2023-03-14T03:05:11;27.13;;;8.40;;
33802;SDS011;20110;53.120;5.786;2023-03-14T03:07:37;24.55;;;7.15;;
33802;SDS011;20110;53.120;5.786;2023-03-14T03:10:03;16.52;;;5.03;;
33802;SDS011;20110;53.120;5.786;2023-03-14T03:12:30;17.90;;;6.07;;
33802;SDS011;20110;53.120;5.786;2023-03-14T03:14:55;27.65;;;6.45;;
33802;SDS011;20110;53.120;5.786;2023-03-14T03:17:21;33.28;;;6.22;;
33802;SDS011;20110;53.120;5.786;2023-03-14T03:19:47;17.55;;;8.52;;
33802;SDS011;20110;53.120;5.786;2023-03-14T03:22:13;31.88;;;7.35;;
33802;SDS011;20110;53.120;5.786;2023-03-14T03:24:39;47.03;;;6.70;;
33802;SDS011;20110;53.120;5.786;2023-03-14T03:27:05;34.88;;;7.93;;
33802;SDS011;20110;53.120;5.786;2023-03-14T03:29:31;30.25;;;6.68;;
33802;SDS011;20110;53.120;5.786;2023-03-14T03:31:56;32.38;;;9.77;;
33802;SDS011;20110;53.120;5.786;2023-03-14T03:34:22;32.90;;;7.95;;
33802;SDS011;20110;53.120;5.786;2023-03-14T03:36:48;34.20;;;5.95;;
33802;SDS011;20110;53.120;5.786;2023-03-14T03:39:14;26.55;;;6.55;;
33802;SDS011;20110;53.120;5.786;2023-03-14T03:41:40;39.70;;;5.82;;
33802;SDS011;20110;53.120;5.786;2023-03-14T03:44:05;34.30;;;6.60;;
33802;SDS011;20110;53.120;5.786;2023-03-14T03:46:32;35.55;;;7.55;;
33802;SDS011;20110;53.120;5.786;2023-03-14T03:48:58;36.17;;;6.22;;
33802;SDS011;20110;53.120;5.786;2023-03-14T03:51:25;36.88;;;10.05;;
33802;SDS011;20110;53.120;5.786;2023-03-14T03:53:51;27.83;;;5.70;;
33802;SDS011;20110;53.120;5.786;2023-03-14T03:56:17;34.78;;;6.30;;
33802;SDS011;20110;53.120;5.786;2023-03-14T03:58:43;37.08;;;7.18;;
33802;SDS011;20110;53.120;5.786;2023-03-14T04:01:09;21.20;;;7.07;;
33802;SDS011;20110;53.120;5.786;2023-03-14T04:03:35;34.95;;;16.85;;
33802;SDS011;20110;53.120;5.786;2023-03-14T04:06:12;39.83;;;18.95;;
33802;SDS011;20110;53.120;5.786;2023-03-14T04:08:38;46.15;;;9.90;;
33802;SDS011;20110;53.120;5.786;2023-03-14T04:11:08;39.13;;;20.95;;
33802;SDS011;20110;53.120;5.786;2023-03-14T04:13:34;54.38;;;30.13;;
33802;SDS011;20110;53.120;5.786;2023-03-14T04:16:00;30.65;;;15.57;;
33802;SDS011;20110;53.120;5.786;2023-03-14T04:18:26;25.15;;;10.15;;
33802;SDS011;20110;53.120;5.786;2023-03-14T04:20:54;25.30;;;9.40;;
33802;SDS011;20110;53.120;5.786;2023-03-14T04:23:22;26.42;;;7.35;;
33802;SDS011;20110;53.120;5.786;2023-03-14T04:25:50;28.30;;;8.98;;
33802;SDS011;20110;53.120;5.786;2023-03-14T04:28:17;23.52;;;14.13;;
33802;SDS011;20110;53.120;5.786;2023-03-14T04:30:43;15.70;;;8.70;;
33802;SDS011;20110;53.120;5.786;2023-03-14T04:33:09;35.65;;;10.32;;
33802;SDS011;20110;53.120;5.786;2023-03-14T04:35:35;28.85;;;8.98;;
33802;SDS011;20110;53.120;5.786;2023-03-14T04:38:01;29.92;;;5.78;;
33802;SDS011;20110;53.120;5.786;2023-03-14T04:40:27;20.45;;;6.65;;
33802;SDS011;20110;53.120;5.786;2023-03-14T04:42:53;24.98;;;9.13;;
33802;SDS011;20110;53.120;5.786;2023-03-14T04:45:19;32.80;;;12.90;;
33802;SDS011;20110;53.120;5.786;2023-03-14T04:47:45;10.82;;;7.45;;
33802;SDS011;20110;53.120;5.786;2023-03-14T04:50:11;14.77;;;6.65;;
33802;SDS011;20110;53.120;5.786;2023-03-14T04:52:37;23.92;;;9.05;;
33802;SDS011;20110;53.120;5.786;2023-03-14T04:55:03;23.70;;;11.68;;
33802;SDS011;20110;53.120;5.786;2023-03-14T04:57:29;30.55;;;12.18;;
33802;SDS011;20110;53.120;5.786;2023-03-14T04:59:55;18.70;;;7.20;;
33802;SDS011;20110;53.120;5.786;2023-03-14T05:02:21;18.23;;;6.78;;
33802;SDS011;20110;53.120;5.786;2023-03-14T05:04:46;13.88;;;11.98;;
33802;SDS011;20110;53.120;5.786;2023-03-14T05:07:12;14.40;;;11.45;;
33802;SDS011;20110;53.120;5.786;2023-03-14T05:09:38;25.35;;;7.70;;
33802;SDS011;20110;53.120;5.786;2023-03-14T05:12:04;10.82;;;8.65;;
33802;SDS011;20110;53.120;5.786;2023-03-14T05:14:30;18.60;;;6.50;;
33802;SDS011;20110;53.120;5.786;2023-03-14T05:16:56;17.13;;;7.82;;
33802;SDS011;20110;53.120;5.786;2023-03-14T05:19:22;13.07;;;7.00;;
33802;SDS011;20110;53.120;5.786;2023-03-14T05:21:48;20.42;;;7.60;;
33802;SDS011;20110;53.120;5.786;2023-03-14T05:24:14;15.95;;;9.27;;
33802;SDS011;20110;53.120;5.786;2023-03-14T05:26:39;15.25;;;10.13;;
33802;SDS011;20110;53.120;5.786;2023-03-14T05:29:05;9.25;;;6.03;;
33802;SDS011;20110;53.120;5.786;2023-03-14T05:31:31;8.93;;;5.55;;
33802;SDS011;20110;53.120;5.786;2023-03-14T05:33:57;14.43;;;7.90;;
33802;SDS011;20110;53.120;5.786;2023-03-14T05:36:23;13.50;;;7.18;;
33802;SDS011;20110;53.120;5.786;2023-03-14T05:38:48;15.60;;;6.28;;
33802;SDS011;20110;53.120;5.786;2023-03-14T05:41:14;10.48;;;5.63;;
33802;SDS011;20110;53.120;5.786;2023-03-14T05:43:40;12.52;;;6.47;;
33802;SDS011;20110;53.120;5.786;2023-03-14T05:46:06;21.23;;;8.85;;
33802;SDS011;20110;53.120;5.786;2023-03-14T05:48:31;25.77;;;15.90;;
33802;SDS011;20110;53.120;5.786;2023-03-14T05:50:58;18.20;;;10.50;;
33802;SDS011;20110;53.120;5.786;2023-03-14T05:53:24;10.05;;;5.10;;
33802;SDS011;20110;53.120;5.786;2023-03-14T05:55:51;13.80;;;4.10;;
33802;SDS011;20110;53.120;5.786;2023-03-14T05:58:18;14.93;;;4.07;;
33802;SDS011;20110;53.120;5.786;2023-03-14T06:00:44;6.72;;;3.00;;
33802;SDS011;20110;53.120;5.786;2023-03-14T06:03:10;4.32;;;2.55;;
33802;SDS011;20110;53.120;5.786;2023-03-14T06:05:36;4.05;;;2.65;;
33802;SDS011;20110;53.120;5.786;2023-03-14T06:08:02;1.75;;;1.65;;
33802;SDS011;20110;53.120;5.786;2023-03-14T06:10:28;7.00;;;2.35;;
33802;SDS011;20110;53.120;5.786;2023-03-14T06:12:54;4.32;;;2.88;;
33802;SDS011;20110;53.120;5.786;2023-03-14T06:15:19;8.57;;;2.60;;
33802;SDS011;20110;53.120;5.786;2023-03-14T06:17:45;6.68;;;3.25;;
33802;SDS011;20110;53.120;5.786;2023-03-14T06:20:11;11.98;;;2.35;;
33802;SDS011;20110;53.120;5.786;2023-03-14T06:22:37;8.75;;;2.03;;
33802;SDS011;20110;53.120;5.786;2023-03-14T06:25:05;25.83;;;3.13;;
33802;SDS011;20110;53.120;5.786;2023-03-14T06:27:32;3.95;;;3.30;;
33802;SDS011;20110;53.120;5.786;2023-03-14T06:29:58;2.67;;;2.28;;
33802;SDS011;20110;53.120;5.786;2023-03-14T06:32:26;2.22;;;2.13;;
33802;SDS011;20110;53.120;5.786;2023-03-14T06:34:51;5.57;;;2.88;;
33802;SDS011;20110;53.120;5.786;2023-03-14T06:37:18;1.77;;;1.67;;
33802;SDS011;20110;53.120;5.786;2023-03-14T06:39:44;5.10;;;3.75;;
33802;SDS011;20110;53.120;5.786;2023-03-14T06:42:09;14.27;;;2.28;;
33802;SDS011;20110;53.120;5.786;2023-03-14T06:44:35;5.07;;;1.80;;
33802;SDS011;20110;53.120;5.786;2023-03-14T06:47:01;4.47;;;1.63;;
33802;SDS011;20110;53.120;5.786;2023-03-14T06:49:27;4.75;;;2.08;;
33802;SDS011;20110;53.120;5.786;2023-03-14T06:51:56;2.60;;;2.40;;
33802;SDS011;20110;53.120;5.786;2023-03-14T06:54:27;2.70;;;1.50;;
33802;SDS011;20110;53.120;5.786;2023-03-14T06:56:53;10.77;;;2.60;;
33802;SDS011;20110;53.120;5.786;2023-03-14T06:59:31;1.98;;;1.90;;
33802;SDS011;20110;53.120;5.786;2023-03-14T07:01:57;10.43;;;2.10;;
33802;SDS011;20110;53.120;5.786;2023-03-14T07:04:23;3.80;;;1.95;;
33802;SDS011;20110;53.120;5.786;2023-03-14T07:06:51;4.93;;;3.00;;
33802;SDS011;20110;53.120;5.786;2023-03-14T07:09:16;8.55;;;1.52;;
33802;SDS011;20110;53.120;5.786;2023-03-14T07:11:42;6.68;;;2.58;;
33802;SDS011;20110;53.120;5.786;2023-03-14T07:14:08;1.52;;;1.42;;
33802;SDS011;20110;53.120;5.786;2023-03-14T07:16:35;8.93;;;1.73;;
33802;SDS011;20110;53.120;5.786;2023-03-14T07:19:01;5.25;;;3.03;;
33802;SDS011;20110;53.120;5.786;2023-03-14T07:21:30;2.38;;;2.10;;
33802;SDS011;20110;53.120;5.786;2023-03-14T07:23:57;7.35;;;1.60;;
33802;SDS011;20110;53.120;5.786;2023-03-14T07:26:23;4.28;;;1.80;;
33802;SDS011;20110;53.120;5.786;2023-03-14T07:28:49;2.50;;;1.80;;
33802;SDS011;20110;53.120;5.786;2023-03-14T07:31:16;2.95;;;2.85;;
33802;SDS011;20110;53.120;5.786;2023-03-14T07:33:42;3.03;;;1.52;;
33802;SDS011;20110;53.120;5.786;2023-03-14T07:36:08;3.90;;;1.80;;
33802;SDS011;20110;53.120;5.786;2023-03-14T07:38:34;3.55;;;1.83;;
33802;SDS011;20110;53.120;5.786;2023-03-14T07:41:01;10.88;;;2.50;;
33802;SDS011;20110;53.120;5.786;2023-03-14T07:43:29;7.00;;;2.05;;
33802;SDS011;20110;53.120;5.786;2023-03-14T07:45:55;3.22;;;2.33;;
33802;SDS011;20110;53.120;5.786;2023-03-14T07:48:21;3.75;;;2.72;;
33802;SDS011;20110;53.120;5.786;2023-03-14T07:50:50;7.68;;;2.70;;
33802;SDS011;20110;53.120;5.786;2023-03-14T07:53:18;6.93;;;3.35;;
33802;SDS011;20110;53.120;5.786;2023-03-14T07:55:44;4.55;;;1.60;;
33802;SDS011;20110;53.120;5.786;2023-03-14T07:58:11;15.80;;;3.22;;
33802;SDS011;20110;53.120;5.786;2023-03-14T08:00:39;7.13;;;2.40;;
33802;SDS011;20110;53.120;5.786;2023-03-14T08:03:05;7.00;;;3.17;;
33802;SDS011;20110;53.120;5.786;2023-03-14T08:05:33;11.30;;;2.75;;
33802;SDS011;20110;53.120;5.786;2023-03-14T08:08:03;17.27;;;3.88;;
33802;SDS011;20110;53.120;5.786;2023-03-14T08:10:30;11.55;;;3.38;;
33802;SDS011;20110;53.120;5.786;2023-03-14T08:12:58;8.38;;;4.15;;
33802;SDS011;20110;53.120;5.786;2023-03-14T08:15:25;20.35;;;3.90;;
33802;SDS011;20110;53.120;5.786;2023-03-14T08:17:54;16.13;;;3.53;;
33802;SDS011;20110;53.120;5.786;2023-03-14T08:20:21;6.43;;;2.60;;
33802;SDS011;20110;53.120;5.786;2023-03-14T08:22:55;13.60;;;3.15;;
33802;SDS011;20110;53.120;5.786;2023-03-14T08:25:22;13.60;;;3.67;;
33802;SDS011;20110;53.120;5.786;2023-03-14T08:27:48;17.98;;;2.78;;
33802;SDS011;20110;53.120;5.786;2023-03-14T08:30:15;13.57;;;3.05;;
33802;SDS011;20110;53.120;5.786;2023-03-14T08:32:43;17.13;;;2.97;;
33802;SDS011;20110;53.120;5.786;2023-03-14T08:35:09;8.23;;;3.28;;
33802;SDS011;20110;53.120;5.786;2023-03-14T08:37:36;15.80;;;3.03;;
33802;SDS011;20110;53.120;5.786;2023-03-14T08:40:03;12.75;;;3.05;;
33802;SDS011;20110;53.120;5.786;2023-03-14T08:42:35;12.63;;;3.65;;
33802;SDS011;20110;53.120;5.786;2023-03-14T08:45:03;18.63;;;4.57;;
33802;SDS011;20110;53.120;5.786;2023-03-14T08:47:29;24.13;;;3.97;;
33802;SDS011;20110;53.120;5.786;2023-03-14T08:49:55;7.10;;;3.90;;
33802;SDS011;20110;53.120;5.786;2023-03-14T08:52:21;21.50;;;4.13;;
33802;SDS011;20110;53.120;5.786;2023-03-14T08:54:47;13.20;;;3.97;;
33802;SDS011;20110;53.120;5.786;2023-03-14T08:57:13;21.42;;;3.85;;
33802;SDS011;20110;53.120;5.786;2023-03-14T08:59:39;13.07;;;2.88;;
33802;SDS011;20110;53.120;5.786;2023-03-14T09:02:05;36.30;;;4.00;;
33802;SDS011;20110;53.120;5.786;2023-03-14T09:04:33;6.90;;;4.53;;
33802;SDS011;20110;53.120;5.786;2023-03-14T09:06:59;13.52;;;2.60;;
33802;SDS011;20110;53.120;5.786;2023-03-14T09:09:25;8.77;;;3.50;;
33802;SDS011;20110;53.120;5.786;2023-03-14T09:11:52;22.00;;;3.47;;
33802;SDS011;20110;53.120;5.786;2023-03-14T09:14:18;8.38;;;2.55;;
33802;SDS011;20110;53.120;5.786;2023-03-14T09:16:44;6.70;;;2.30;;
33802;SDS011;20110;53.120;5.786;2023-03-14T09:19:10;17.77;;;3.25;;
33802;SDS011;20110;53.120;5.786;2023-03-14T09:21:36;10.32;;;2.83;;
33802;SDS011;20110;53.120;5.786;2023-03-14T09:24:03;11.15;;;2.95;;
33802;SDS011;20110;53.120;5.786;2023-03-14T09:26:30;9.38;;;4.38;;
33802;SDS011;20110;53.120;5.786;2023-03-14T09:28:57;14.50;;;5.65;;
33802;SDS011;20110;53.120;5.786;2023-03-14T09:31:23;14.23;;;4.03;;
33802;SDS011;20110;53.120;5.786;2023-03-14T09:33:49;30.10;;;4.10;;
33802;SDS011;20110;53.120;5.786;2023-03-14T09:36:15;15.90;;;3.85;;
33802;SDS011;20110;53.120;5.786;2023-03-14T09:38:41;17.63;;;4.72;;
33802;SDS011;20110;53.120;5.786;2023-03-14T09:41:15;12.98;;;4.60;;
33802;SDS011;20110;53.120;5.786;2023-03-14T09:44:32;9.25;;;4.10;;
33802;SDS011;20110;53.120;5.786;2023-03-14T09:47:22;12.32;;;4.03;;
33802;SDS011;20110;53.120;5.786;2023-03-14T09:49:50;15.85;;;3.22;;
33802;SDS011;20110;53.120;5.786;2023-03-14T09:54:58;12.15;;;3.65;;
33802;SDS011;20110;53.120;5.786;2023-03-14T09:57:30;17.08;;;3.97;;
33802;SDS011;20110;53.120;5.786;2023-03-14T10:00:02;11.55;;;4.55;;
33802;SDS011;20110;53.120;5.786;2023-03-14T10:02:55;12.68;;;4.70;;
33802;SDS011;20110;53.120;5.786;2023-03-14T10:05:50;7.85;;;6.55;;
33802;SDS011;20110;53.120;5.786;2023-03-14T10:08:17;31.50;;;4.53;;
33802;SDS011;20110;53.120;5.786;2023-03-14T10:10:42;16.50;;;4.70;;
33802;SDS011;20110;53.120;5.786;2023-03-14T10:13:16;28.98;;;4.43;;
33802;SDS011;20110;53.120;5.786;2023-03-14T10:15:53;22.52;;;6.63;;
33802;SDS011;20110;53.120;5.786;2023-03-14T10:18:28;14.38;;;7.43;;
33802;SDS011;20110;53.120;5.786;2023-03-14T10:21:06;25.15;;;6.60;;
33802;SDS011;20110;53.120;5.786;2023-03-14T10:23:52;11.35;;;9.32;;
33802;SDS011;20110;53.120;5.786;2023-03-14T10:26:27;16.08;;;6.38;;
33802;SDS011;20110;53.120;5.786;2023-03-14T10:28:55;15.73;;;6.72;;
33802;SDS011;20110;53.120;5.786;2023-03-14T10:31:46;8.98;;;5.18;;
33802;SDS011;20110;53.120;5.786;2023-03-14T10:34:29;6.63;;;3.47;;
33802;SDS011;20110;53.120;5.786;2023-03-14T10:37:04;11.73;;;3.75;;
33802;SDS011;20110;53.120;5.786;2023-03-14T10:42:39;6.40;;;4.25;;
33802;SDS011;20110;53.120;5.786;2023-03-14T10:45:32;11.55;;;5.13;;
33802;SDS011;20110;53.120;5.786;2023-03-14T10:48:17;11.90;;;4.55;;
33802;SDS011;20110;53.120;5.786;2023-03-14T10:50:53;13.27;;;4.07;;
33802;SDS011;20110;53.120;5.786;2023-03-14T10:53:24;8.70;;;5.22;;
33802;SDS011;20110;53.120;5.786;2023-03-14T10:55:51;10.43;;;4.30;;
33802;SDS011;20110;53.120;5.786;2023-03-14T10:58:27;17.33;;;3.88;;
33802;SDS011;20110;53.120;5.786;2023-03-14T11:16:02;8.35;;;3.50;;
33802;SDS011;20110;53.120;5.786;2023-03-14T11:18:48;7.82;;;3.17;;
33802;SDS011;20110;53.120;5.786;2023-03-14T11:21:43;8.70;;;3.80;;
33802;SDS011;20110;53.120;5.786;2023-03-14T11:30:38;9.00;;;3.28;;
33802;SDS011;20110;53.120;5.786;2023-03-14T11:33:44;14.10;;;3.25;;
33802;SDS011;20110;53.120;5.786;2023-03-14T11:36:21;5.07;;;3.45;;
33802;SDS011;20110;53.120;5.786;2023-03-14T11:41:40;7.13;;;3.05;;
33802;SDS011;20110;53.120;5.786;2023-03-14T11:44:20;11.07;;;3.00;;
33802;SDS011;20110;53.120;5.786;2023-03-14T11:49:53;9.18;;;3.13;;
33802;SDS011;20110;53.120;5.786;2023-03-14T11:53:03;10.88;;;6.32;;
33802;SDS011;20110;53.120;5.786;2023-03-14T11:55:32;8.52;;;3.22;;
33802;SDS011;20110;53.120;5.786;2023-03-14T11:58:20;16.48;;;4.85;;
33802;SDS011;20110;53.120;5.786;2023-03-14T12:00:53;15.25;;;4.18;;
33802;SDS011;20110;53.120;5.786;2023-03-14T12:08:56;10.98;;;2.95;;
33802;SDS011;20110;53.120;5.786;2023-03-14T12:16:53;10.45;;;3.45;;
33802;SDS011;20110;53.120;5.786;2023-03-14T12:19:48;9.10;;;3.47;;
33802;SDS011;20110;53.120;5.786;2023-03-14T12:35:59;5.65;;;3.58;;
33802;SDS011;20110;53.120;5.786;2023-03-14T12:43:38;8.95;;;3.38;;
33802;SDS011;20110;53.120;5.786;2023-03-14T12:51:38;6.72;;;3.25;;
33802;SDS011;20110;53.120;5.786;2023-03-14T12:57:06;10.73;;;4.20;;
33802;SDS011;20110;53.120;5.786;2023-03-14T13:00:21;8.13;;;3.65;;
33802;SDS011;20110;53.120;5.786;2023-03-14T13:03:00;18.25;;;4.43;;
33802;SDS011;20110;53.120;5.786;2023-03-14T13:08:44;5.43;;;3.50;;
33802;SDS011;20110;53.120;5.786;2023-03-14T13:11:16;7.75;;;3.15;;
33802;SDS011;20110;53.120;5.786;2023-03-14T13:13:49;8.23;;;3.28;;
33802;SDS011;20110;53.120;5.786;2023-03-14T13:16:24;4.82;;;4.10;;
33802;SDS011;20110;53.120;5.786;2023-03-14T13:19:37;16.92;;;4.38;;
33802;SDS011;20110;53.120;5.786;2023-03-14T13:21:47;11.50;;;3.38;;
33802;SDS011;20110;53.120;5.786;2023-03-14T13:26:51;5.63;;;3.53;;
33802;SDS011;20110;53.120;5.786;2023-03-14T13:29:30;9.77;;;3.47;;
33802;SDS011;20110;53.120;5.786;2023-03-14T13:32:01;9.57;;;4.85;;
33802;SDS011;20110;53.120;5.786;2023-03-14T13:34:42;6.30;;;4.20;;
33802;SDS011;20110;53.120;5.786;2023-03-14T13:37:19;4.13;;;3.45;;
33802;SDS011;20110;53.120;5.786;2023-03-14T13:39:55;9.05;;;3.83;;
33802;SDS011;20110;53.120;5.786;2023-03-14T13:42:28;5.82;;;3.10;;
33802;SDS011;20110;53.120;5.786;2023-03-14T13:44:55;13.73;;;4.25;;
33802;SDS011;20110;53.120;5.786;2023-03-14T13:47:22;7.93;;;2.92;;
33802;SDS011;20110;53.120;5.786;2023-03-14T13:49:51;9.98;;;3.15;;
33802;SDS011;20110;53.120;5.786;2023-03-14T13:54:55;12.15;;;3.42;;
33802;SDS011;20110;53.120;5.786;2023-03-14T13:57:23;6.43;;;2.92;;
33802;SDS011;20110;53.120;5.786;2023-03-14T14:00:04;9.05;;;3.05;;
33802;SDS011;20110;53.120;5.786;2023-03-14T14:02:35;12.40;;;3.53;;
33802;SDS011;20110;53.120;5.786;2023-03-14T14:05:03;9.35;;;3.60;;
33802;SDS011;20110;53.120;5.786;2023-03-14T14:07:30;6.07;;;3.25;;
33802;SDS011;20110;53.120;5.786;2023-03-14T14:09:57;8.30;;;2.95;;
33802;SDS011;20110;53.120;5.786;2023-03-14T14:12:37;8.98;;;3.33;;
33802;SDS011;20110;53.120;5.786;2023-03-14T14:15:28;6.80;;;3.00;;
33802;SDS011;20110;53.120;5.786;2023-03-14T14:18:03;9.15;;;4.93;;
33802;SDS011;20110;53.120;5.786;2023-03-14T14:20:33;11.43;;;4.22;;
33802;SDS011;20110;53.120;5.786;2023-03-14T14:23:10;6.43;;;3.20;;
33802;SDS011;20110;53.120;5.786;2023-03-14T14:25:44;5.63;;;3.10;;
33802;SDS011;20110;53.120;5.786;2023-03-14T14:28:44;9.60;;;3.20;;
33802;SDS011;20110;53.120;5.786;2023-03-14T14:31:05;17.77;;;4.57;;
33802;SDS011;20110;53.120;5.786;2023-03-14T14:34:17;14.05;;;4.95;;
33802;SDS011;20110;53.120;5.786;2023-03-14T14:36:44;8.50;;;3.53;;
33802;SDS011;20110;53.120;5.786;2023-03-14T14:39:21;11.35;;;4.40;;
33802;SDS011;20110;53.120;5.786;2023-03-14T14:41:52;13.70;;;3.97;;
33802;SDS011;20110;53.120;5.786;2023-03-14T14:44:21;10.77;;;4.35;;
33802;SDS011;20110;53.120;5.786;2023-03-14T14:47:01;29.45;;;4.22;;
33802;SDS011;20110;53.120;5.786;2023-03-14T14:49:30;21.80;;;4.00;;
33802;SDS011;20110;53.120;5.786;2023-03-14T14:55:02;11.30;;;3.35;;
33802;SDS011;20110;53.120;5.786;2023-03-14T14:57:38;6.15;;;3.58;;
33802;SDS011;20110;53.120;5.786;2023-03-14T15:00:18;10.13;;;3.03;;
33802;SDS011;20110;53.120;5.786;2023-03-14T15:02:51;7.97;;;3.15;;
33802;SDS011;20110;53.120;5.786;2023-03-14T15:05:24;8.95;;;3.55;;
33802;SDS011;20110;53.120;5.786;2023-03-14T15:07:55;9.32;;;3.60;;
33802;SDS011;20110;53.120;5.786;2023-03-14T15:10:23;12.77;;;3.67;;
33802;SDS011;20110;53.120;5.786;2023-03-14T15:12:51;13.85;;;3.83;;
33802;SDS011;20110;53.120;5.786;2023-03-14T15:15:17;10.38;;;3.10;;
33802;SDS011;20110;53.120;5.786;2023-03-14T15:17:44;5.50;;;2.80;;
33802;SDS011;20110;53.120;5.786;2023-03-14T15:20:11;10.23;;;4.20;;
33802;SDS011;20110;53.120;5.786;2023-03-14T15:22:40;37.70;;;30.08;;
33802;SDS011;20110;53.120;5.786;2023-03-14T15:25:06;9.88;;;5.47;;
33802;SDS011;20110;53.120;5.786;2023-03-14T15:27:33;5.45;;;2.70;;
33802;SDS011;20110;53.120;5.786;2023-03-14T15:30:01;12.95;;;3.15;;
33802;SDS011;20110;53.120;5.786;2023-03-14T15:32:27;13.68;;;2.83;;
33802;SDS011;20110;53.120;5.786;2023-03-14T15:34:56;21.65;;;3.45;;
33802;SDS011;20110;53.120;5.786;2023-03-14T15:37:22;8.98;;;3.35;;
33802;SDS011;20110;53.120;5.786;2023-03-14T15:39:48;17.48;;;3.40;;
33802;SDS011;20110;53.120;5.786;2023-03-14T15:42:14;18.45;;;3.35;;
33802;SDS011;20110;53.120;5.786;2023-03-14T15:44:39;7.90;;;2.83;;
33802;SDS011;20110;53.120;5.786;2023-03-14T15:47:05;28.48;;;17.70;;
33802;SDS011;20110;53.120;5.786;2023-03-14T15:49:33;8.23;;;4.03;;
33802;SDS011;20110;53.120;5.786;2023-03-14T15:51:59;10.85;;;4.30;;
33802;SDS011;20110;53.120;5.786;2023-03-14T15:54:25;11.98;;;3.55;;
33802;SDS011;20110;53.120;5.786;2023-03-14T15:56:54;10.52;;;4.78;;
33802;SDS011;20110;53.120;5.786;2023-03-14T15:59:21;3.22;;;2.97;;
33802;SDS011;20110;53.120;5.786;2023-03-14T16:01:48;12.00;;;4.38;;
33802;SDS011;20110;53.120;5.786;2023-03-14T16:04:15;7.25;;;3.72;;
33802;SDS011;20110;53.120;5.786;2023-03-14T16:06:42;11.43;;;3.65;;
33802;SDS011;20110;53.120;5.786;2023-03-14T16:09:10;8.93;;;4.00;;
33802;SDS011;20110;53.120;5.786;2023-03-14T16:11:37;12.18;;;10.98;;
33802;SDS011;20110;53.120;5.786;2023-03-14T16:14:03;7.30;;;6.55;;
33802;SDS011;20110;53.120;5.786;2023-03-14T16:16:29;10.18;;;4.82;;
33802;SDS011;20110;53.120;5.786;2023-03-14T16:18:55;12.18;;;4.75;;
33802;SDS011;20110;53.120;5.786;2023-03-14T16:21:21;11.88;;;6.72;;
33802;SDS011;20110;53.120;5.786;2023-03-14T16:23:47;10.85;;;4.70;;
33802;SDS011;20110;53.120;5.786;2023-03-14T16:26:15;8.75;;;4.10;;
33802;SDS011;20110;53.120;5.786;2023-03-14T16:28:44;10.18;;;3.47;;